Hovedside
METAR-TAF:

METAR-TAF

Lufthavner :

Majuro, Marshalløyene

breddegrad: 07-04N, lengdegrad: 171-17E, høyde over havet: 2 m

Gjeldene værobservasjon

Denne rapporten ble laget for 1 time og 6 minutter siden, klokken 20:53 UTC
Vind 18 kt fra Øst
Temperatur 29°C
Luftfuktighet 79%
Trykk 1010 hPa
Sikt: 24.1 km
Få skyer i en høyde av 1500 ft
Spredte skyer i en høyde av 5000 ft
Brutte skyer i en høyde av 12000 ft
Overskyet i en høyde av 30000 ft

METAR: PKMJ 122053Z 10018KT 15SM FEW015 SCT050 BKN120 OVC300 29/25 A2982 RMK LAST

Tid: 09:59 (21:59 UTC)

Varsel

Denne rapporten ble laget for 4 timer og 39 minutter siden, klokken 17:20 UTC
Varsel gyldig fra 12. klokken 18 UTC til 13. klokken 18 UTC
Vind 15 kt fra Øst
Sikt: 10 km
Få skyer i en høyde av 1800 ft
Spredte skyer i en høyde av 5000 ft
Brutte skyer i en høyde av 14000 ft
regnbyger i nærheten

TAF: PKMJ 121720Z 1218/1318 09015KT P6SM VCSH FEW018 SCT050 BKN140

Værobservasjoner og værvarsel for over 4000 flyplasser (METAR- og TAF-rapporter).

Tilgjengelige stasjoner er representert av de røde og gule prikkene på kartet.

Hold musepekeren over prikken for å se navnet på stasjonen.

Klikk så for å se værobservasjoner og -varsler.

For å forandre kartet kan du klikke på den grønne knappen med svart kryss for å zoome inn, på den grønne knappen med strek for å zoome ut, eller på de grønne pilene for å se tilstøtende kart.


METAR-TAF: